Time;durP1;ratioP1;P1;durP2;ratioP2;P2;SDS_P1;SDS_P2;PMS_P1;PMS_P2;Temp;Humidity;BMP_temperature;BMP_pressure;BME280_temperature;BME280_humidity;BME280_pressure;Samples;Min_cycle;Max_cycle;Signal;HPM_P1;HPM_P2
2023/07/21 00:02:28;;;;;;;10.70;4.60;;;;;;;14.58;86.16;100295.84;106519;1252;98511;-84
2023/07/21 00:05:15;;;;;;;6.90;4.40;;;;;;;14.57;86.40;100294.80;106684;1251;100040;-83
2023/07/21 00:08:00;;;;;;;5.90;4.20;;;;;;;14.55;86.03;100291.29;106502;1252;99827;-83
2023/07/21 00:10:46;;;;;;;8.40;4.40;;;;;;;14.50;85.65;100291.13;106617;1252;98963;-84
2023/07/21 00:13:35;;;;;;;6.70;4.10;;;;;;;14.44;85.36;100286.48;106411;1255;96611;-82
2023/07/21 00:16:20;;;;;;;10.50;4.80;;;;;;;14.40;85.29;100288.55;106331;1253;98440;-82
2023/07/21 00:19:09;;;;;;;8.90;5.40;;;;;;;14.34;85.37;100292.45;106605;1250;100988;-83
2023/07/21 00:21:55;;;;;;;12.10;5.20;;;;;;;14.28;85.47;100294.55;106313;1255;99729;-83
2023/07/21 00:24:41;;;;;;;6.80;4.60;;;;;;;14.25;85.62;100298.88;106641;1252;97773;-82
2023/07/21 00:27:27;;;;;;;11.20;5.00;;;;;;;14.25;85.85;100292.23;106921;1251;96514;-83
2023/07/21 00:30:13;;;;;;;7.80;4.40;;;;;;;14.26;85.88;100288.91;106273;1260;97586;-83
2023/07/21 00:33:00;;;;;;;8.70;4.20;;;;;;;14.25;86.08;100288.73;106461;1253;100073;-84
2023/07/21 00:35:46;;;;;;;8.00;3.90;;;;;;;14.23;86.02;100289.55;106385;1253;99065;-84
2023/07/21 00:38:31;;;;;;;10.40;4.10;;;;;;;14.22;85.90;100286.84;106292;1251;97864;-82
2023/07/21 00:41:19;;;;;;;7.60;4.60;;;;;;;14.22;85.93;100282.73;106658;1253;98782;-82
2023/07/21 00:44:07;;;;;;;11.70;4.60;;;;;;;14.20;86.02;100281.00;106695;1251;97062;-82
2023/07/21 00:46:53;;;;;;;10.80;5.00;;;;;;;14.19;86.35;100279.35;106422;1252;100103;-82
2023/07/21 00:49:38;;;;;;;8.90;4.50;;;;;;;14.17;86.24;100274.60;106581;1253;100443;-83
2023/07/21 00:52:26;;;;;;;9.00;5.00;;;;;;;14.13;86.15;100273.55;106442;1254;99102;-82
2023/07/21 00:55:12;;;;;;;6.70;5.00;;;;;;;14.10;86.16;100267.35;106638;1258;96500;-82
2023/07/21 00:57:58;;;;;;;6.50;4.60;;;;;;;14.09;86.32;100266.58;106492;1252;97112;-82
2023/07/21 01:00:44;;;;;;;7.50;4.30;;;;;;;14.09;86.45;100267.48;106379;1251;101363;-82
2023/07/21 01:03:30;;;;;;;9.90;5.30;;;;;;;14.07;86.31;100264.30;106567;1256;100487;-81
2023/07/21 01:06:17;;;;;;;9.30;5.10;;;;;;;14.07;86.69;100268.36;106529;1251;97741;-83
2023/07/21 01:09:06;;;;;;;9.60;4.60;;;;;;;14.07;86.54;100267.73;106619;1253;96855;-83
2023/07/21 01:11:54;;;;;;;6.60;4.30;;;;;;;14.05;86.47;100268.46;106693;1253;95976;-81
2023/07/21 01:14:40;;;;;;;8.70;5.20;;;;;;;14.01;86.32;100272.42;106489;1255;99923;-81
2023/07/21 01:17:29;;;;;;;7.50;4.60;;;;;;;13.98;86.36;100271.89;106544;1252;99152;-82
2023/07/21 01:20:22;;;;;;;8.30;4.30;;;;;;;13.96;86.56;100271.84;106489;1251;98982;-82
2023/07/21 01:23:13;;;;;;;11.60;4.80;;;;;;;13.95;86.17;100266.63;106376;1253;96652;-82
2023/07/21 01:26:00;;;;;;;6.80;4.50;;;;;;;13.89;85.89;100268.60;106731;1250;97023;-82
2023/07/21 01:28:46;;;;;;;8.30;4.40;;;;;;;13.85;86.04;100273.27;107090;1252;100027;-82
2023/07/21 01:31:35;;;;;;;8.90;4.30;;;;;;;13.83;86.11;100272.48;106351;1251;100534;-81
2023/07/21 01:34:22;;;;;;;6.70;4.40;;;;;;;13.83;86.12;100275.89;106576;1255;97805;-83
2023/07/21 01:37:08;;;;;;;5.00;4.50;;;;;;;13.83;86.41;100275.48;106612;1251;97025;-82
2023/07/21 01:39:56;;;;;;;7.30;4.90;;;;;;;13.82;86.41;100278.62;108154;1253;96720;-82
2023/07/21 01:42:45;;;;;;;9.30;4.40;;;;;;;13.80;86.42;100285.75;106261;1255;100077;-81
2023/07/21 01:45:33;;;;;;;8.00;4.40;;;;;;;13.77;86.34;100283.08;106510;1251;100326;-81
2023/07/21 01:48:18;;;;;;;11.00;4.10;;;;;;;13.76;86.43;100279.08;106724;1250;97735;-82
2023/07/21 01:51:05;;;;;;;9.00;3.90;;;;;;;13.72;86.08;100278.02;106337;1258;96733;-81
2023/07/21 01:54:00;;;;;;;8.80;4.80;;;;;;;13.69;85.98;100278.61;106532;1253;96617;-80
2023/07/21 01:56:59;;;;;;;6.50;4.60;;;;;;;13.65;86.26;100279.62;106600;1251;100223;-82
2023/07/21 01:59:46;;;;;;;7.00;5.00;;;;;;;13.62;86.38;100280.26;106911;1253;99208;-82
2023/07/21 02:02:32;;;;;;;5.40;4.80;;;;;;;13.59;86.44;100286.31;106411;1260;97845;-82
2023/07/21 02:05:23;;;;;;;7.90;5.10;;;;;;;13.58;86.30;100287.36;106600;1252;96550;-82
2023/07/21 02:08:10;;;;;;;6.90;5.40;;;;;;;13.60;86.65;100287.98;108700;1251;94244;-82
2023/07/21 02:10:55;;;;;;;10.50;6.10;;;;;;;13.60;86.80;100283.95;107480;1253;100697;-81
2023/07/21 02:13:50;;;;;;;15.50;6.20;;;;;;;13.61;87.07;100279.84;106594;1253;99154;-81
2023/07/21 02:16:37;;;;;;;6.20;5.50;;;;;;;13.64;87.39;100281.44;106607;1257;97824;-82
2023/07/21 02:19:22;;;;;;;6.80;6.10;;;;;;;13.67;87.75;100283.50;106485;1252;96713;-81
2023/07/21 02:22:08;;;;;;;9.90;5.80;;;;;;;13.69;87.77;100286.85;106551;1252;96574;-82
2023/07/21 02:24:53;;;;;;;10.60;5.70;;;;;;;13.66;87.15;100282.17;106555;1255;100160;-83
2023/07/21 02:27:39;;;;;;;7.90;5.20;;;;;;;13.62;86.46;100281.17;106555;1251;99344;-83
2023/07/21 02:30:24;;;;;;;4.70;3.70;;;;;;;13.57;86.03;100280.86;106507;1251;99041;-82
2023/07/21 02:33:12;;;;;;;9.10;3.80;;;;;;;13.51;85.76;100284.57;106534;1258;96587;-82
2023/07/21 02:35:58;;;;;;;7.10;3.80;;;;;;;13.44;85.70;100285.59;106493;1252;96611;-82
2023/07/21 02:38:43;;;;;;;6.70;3.60;;;;;;;13.37;85.95;100287.23;106506;1253;100580;-82
2023/07/21 02:41:29;;;;;;;5.00;3.80;;;;;;;13.33;86.01;100284.01;106588;1255;99126;-82
2023/07/21 02:44:14;;;;;;;5.70;3.30;;;;;;;13.28;85.92;100287.21;106579;1253;97801;-83
2023/07/21 02:46:59;;;;;;;6.70;4.70;;;;;;;13.23;85.90;100291.95;106865;1251;96529;-81
2023/07/21 02:49:45;;;;;;;7.70;5.30;;;;;;;13.19;86.26;100296.96;106595;1253;96600;-83
2023/07/21 02:52:31;;;;;;;7.00;4.90;;;;;;;13.16;86.50;100291.39;106535;1253;101254;-83
2023/07/21 02:55:17;;;;;;;6.40;4.70;;;;;;;13.15;86.65;100290.07;106822;1253;100421;-82
2023/07/21 02:58:03;;;;;;;7.50;5.10;;;;;;;13.15;86.87;100290.48;106535;1256;98464;-82
2023/07/21 03:00:51;;;;;;;6.00;5.30;;;;;;;13.16;86.93;100292.72;106936;1256;96783;-82
2023/07/21 03:03:41;;;;;;;7.60;5.30;;;;;;;13.14;87.13;100292.19;106574;1253;97150;-82
2023/07/21 03:06:30;;;;;;;11.10;4.20;;;;;;;13.13;86.91;100299.14;106963;1253;100008;-83
2023/07/21 03:09:16;;;;;;;5.90;3.70;;;;;;;13.09;86.45;100305.30;106461;1251;99352;-82
2023/07/21 03:12:02;;;;;;;4.50;3.60;;;;;;;13.04;86.63;100305.27;106509;1257;97723;-81
2023/07/21 03:15:08;;;;;;;7.00;4.80;;;;;;;13.03;86.81;100298.25;106572;1256;96568;-82
2023/07/21 03:18:20;;;;;;;5.50;4.70;;;;;;;13.05;87.07;100288.30;106613;1255;97056;-81
2023/07/21 03:21:18;;;;;;;9.70;4.70;;;;;;;13.06;87.29;100290.17;106465;1251;100754;-81
2023/07/21 03:24:05;;;;;;;11.30;8.00;;;;;;;13.06;87.53;100294.88;106676;1254;99110;-82
2023/07/21 03:26:51;;;;;;;15.70;6.60;;;;;;;13.07;87.33;100294.67;106630;1253;98396;-80
2023/07/21 03:29:37;;;;;;;7.80;5.40;;;;;;;13.05;87.36;100294.13;106641;1255;96602;-82
2023/07/21 03:32:24;;;;;;;8.90;4.70;;;;;;;13.01;87.04;100289.64;106751;1251;97865;-82
2023/07/21 03:35:11;;;;;;;6.00;4.70;;;;;;;12.98;86.93;100291.02;106491;1253;101310;-81
2023/07/21 03:38:00;;;;;;;7.80;4.40;;;;;;;12.96;86.89;100288.83;106736;1254;100376;-82
2023/07/21 03:40:45;;;;;;;7.20;3.60;;;;;;;12.96;87.39;100287.88;106799;1252;97784;-81
2023/07/21 03:43:31;;;;;;;7.00;3.90;;;;;;;12.97;87.45;100291.19;106459;1260;96620;-82
2023/07/21 03:46:17;;;;;;;5.40;4.50;;;;;;;12.98;87.40;100285.60;106755;1251;98008;-81
2023/07/21 03:49:21;;;;;;;6.60;4.30;;;;;;;13.01;87.67;100291.27;106578;1255;101310;-81
2023/07/21 03:52:13;;;;;;;10.50;4.70;;;;;;;13.07;87.92;100291.77;106634;1253;100516;-83
2023/07/21 03:54:58;;;;;;;8.80;5.90;;;;;;;13.14;88.63;100290.03;106824;1251;97850;-82
2023/07/21 03:57:44;;;;;;;12.00;5.70;;;;;;;13.22;88.97;100291.29;106609;1256;96597;-81
2023/07/21 04:00:30;;;;;;;9.10;5.60;;;;;;;13.30;89.26;100288.53;106434;1258;96561;-83
2023/07/21 04:03:19;;;;;;;11.00;6.50;;;;;;;13.39;90.04;100286.60;106580;1254;100023;-84
2023/07/21 04:06:07;;;;;;;10.70;6.30;;;;;;;13.49;90.25;100289.09;106800;1251;100223;-82
2023/07/21 04:08:53;;;;;;;13.00;6.60;;;;;;;13.59;90.36;100293.52;106342;1251;98388;-83
2023/07/21 04:11:40;;;;;;;12.60;6.60;;;;;;;13.68;90.94;100293.23;106492;1258;96471;-83
2023/07/21 04:14:26;;;;;;;14.10;7.70;;;;;;;13.78;91.15;100294.66;106387;1251;96595;-82
2023/07/21 04:17:12;;;;;;;13.20;7.90;;;;;;;13.88;91.96;100294.48;106566;1255;101381;-81
2023/07/21 04:19:57;;;;;;;14.20;7.20;;;;;;;13.98;92.34;100293.37;106507;1251;99162;-81
2023/07/21 04:22:43;;;;;;;10.30;7.10;;;;;;;14.07;92.58;100292.98;106537;1252;99072;-82
2023/07/21 04:25:32;;;;;;;16.70;7.30;;;;;;;14.16;92.44;100290.55;106736;1253;96510;-82
2023/07/21 04:28:17;;;;;;;8.60;7.20;;;;;;;14.24;92.67;100289.46;106666;1253;96483;-82
2023/07/21 04:31:03;;;;;;;14.90;8.50;;;;;;;14.34;93.00;100288.17;106530;1251;99911;-81
2023/07/21 04:33:58;;;;;;;15.30;7.50;;;;;;;14.42;93.39;100288.59;106549;1253;99200;-83
2023/07/21 04:36:44;;;;;;;10.40;7.30;;;;;;;14.50;93.49;100291.54;106520;1257;98727;-83
2023/07/21 04:39:45;;;;;;;;;;;;;;;14.59;93.42;100292.50;106465;1253;96739;-82
2023/07/21 04:42:32;;;;;;;12.80;7.30;;;;;;;14.66;93.82;100286.80;106504;1251;96618;-83
2023/07/21 04:45:18;;;;;;;9.00;7.40;;;;;;;14.76;93.87;100284.20;106718;1255;100045;-84
2023/07/21 04:48:17;;;;;;;11.30;7.40;;;;;;;14.85;93.71;100282.65;106618;1255;99410;-85
2023/07/21 04:51:04;;;;;;;9.60;6.70;;;;;;;14.95;93.61;100287.75;106549;1253;99060;-83
2023/07/21 04:53:49;;;;;;;8.50;6.70;;;;;;;15.06;94.38;100291.65;106508;1252;96747;-83
2023/07/21 04:56:34;;;;;;;11.30;7.00;;;;;;;15.15;94.46;100297.23;106385;1253;97119;-83
2023/07/21 04:59:21;;;;;;;7.60;6.90;;;;;;;15.25;95.00;100298.76;106320;1252;100754;-82
2023/07/21 05:02:07;;;;;;;9.30;5.60;;;;;;;15.34;95.03;100298.83;106528;1253;99242;-84
2023/07/21 05:04:53;;;;;;;6.20;5.50;;;;;;;15.45;94.98;100302.67;106289;1251;97903;-82
2023/07/21 05:07:39;;;;;;;7.10;6.50;;;;;;;15.56;95.04;100301.34;106527;1251;96620;-84
2023/07/21 05:10:25;;;;;;;12.80;6.20;;;;;;;15.67;95.22;100302.61;106507;1257;97412;-82
2023/07/21 05:13:11;;;;;;;6.70;6.10;;;;;;;15.78;95.26;100306.17;106582;1251;100064;-83
2023/07/21 05:16:04;;;;;;;6.50;5.90;;;;;;;15.88;95.22;100309.07;106333;1256;99102;-84
2023/07/21 05:19:08;;;;;;;8.70;5.60;;;;;;;15.99;95.16;100311.33;106454;1255;98263;-83
2023/07/21 05:22:21;;;;;;;7.60;6.40;;;;;;;16.12;94.69;100312.14;106674;1251;96590;-82
2023/07/21 05:25:21;;;;;;;9.00;6.70;;;;;;;16.21;94.69;100316.38;106593;1251;96620;-83
2023/07/21 05:28:08;;;;;;;7.10;6.40;;;;;;;16.31;94.35;100316.54;106118;1252;100019;-83
2023/07/21 05:30:56;;;;;;;7.50;6.10;;;;;;;16.40;94.11;100319.42;106287;1256;100909;-82
2023/07/21 05:33:46;;;;;;;6.40;5.70;;;;;;;16.49;94.38;100317.02;106295;1256;97711;-81
2023/07/21 05:36:32;;;;;;;6.80;6.10;;;;;;;16.58;94.38;100316.14;106536;1251;97018;-81
2023/07/21 05:39:18;;;;;;;8.60;5.40;;;;;;;16.66;94.13;100314.24;106381;1258;96686;-83
2023/07/21 05:42:03;;;;;;;7.30;5.70;;;;;;;16.74;94.18;100309.08;106303;1253;100179;-84
2023/07/21 05:44:52;;;;;;;7.00;5.60;;;;;;;16.84;94.32;100308.84;106573;1255;99156;-82
2023/07/21 05:47:38;;;;;;;10.10;5.70;;;;;;;16.95;94.05;100308.44;106419;1259;98417;-82
2023/07/21 05:50:23;;;;;;;5.40;4.90;;;;;;;17.04;93.23;100303.73;106280;1251;96853;-83
2023/07/21 05:53:09;;;;;;;10.50;5.30;;;;;;;17.14;93.12;100304.48;106357;1253;97139;-84
2023/07/21 05:55:55;;;;;;;6.90;4.50;;;;;;;17.24;93.04;100306.87;106450;1256;111071;-84
2023/07/21 05:58:58;;;;;;;7.80;4.60;;;;;;;17.36;93.25;100306.45;106593;1256;99922;-84
2023/07/21 06:01:44;;;;;;;8.30;4.10;;;;;;;17.50;93.12;100309.63;106607;1256;97784;-84
2023/07/21 06:04:29;;;;;;;4.40;3.90;;;;;;;17.63;92.80;100309.27;106632;1250;96546;-83
2023/07/21 06:07:33;;;;;;;6.40;4.00;;;;;;;17.76;92.28;100309.17;106398;1258;97803;-83
2023/07/21 06:10:38;;;;;;;4.20;3.70;;;;;;;17.90;92.19;100304.80;106643;1256;100031;-84
2023/07/21 06:13:43;;;;;;;9.10;3.60;;;;;;;18.05;91.64;100310.67;106434;1255;99172;-84
2023/07/21 06:16:54;;;;;;;7.50;3.50;;;;;;;18.18;91.14;100312.05;106343;1258;99166;-83
2023/07/21 06:19:41;;;;;;;4.00;3.40;;;;;;;18.28;90.34;100309.69;106273;1253;96608;-84
2023/07/21 06:22:28;;;;;;;6.40;3.40;;;;;;;18.38;90.23;100310.79;106245;1255;97138;-83
2023/07/21 06:25:14;;;;;;;4.80;2.90;;;;;;;18.50;90.21;100303.69;106675;1253;101689;-84
2023/07/21 06:28:01;;;;;;;4.70;3.10;;;;;;;18.62;89.66;100303.09;106680;1252;100350;-85
2023/07/21 06:30:48;;;;;;;3.60;3.00;;;;;;;18.73;89.09;100302.56;106391;1253;97757;-83
2023/07/21 06:33:52;;;;;;;4.10;3.20;;;;;;;18.82;88.30;100299.52;106661;1251;96611;-85
2023/07/21 06:36:52;;;;;;;4.90;2.80;;;;;;;18.91;87.19;100299.74;106250;1258;96834;-84
2023/07/21 06:39:52;;;;;;;6.30;3.10;;;;;;;19.03;87.60;100298.80;106416;1256;101212;-86
2023/07/21 06:42:57;;;;;;;3.50;2.30;;;;;;;19.16;87.61;100303.23;106478;1253;100315;-85
2023/07/21 06:45:59;;;;;;;3.10;2.60;;;;;;;19.28;86.80;100306.50;106575;1253;97811;-89
2023/07/21 06:49:05;;;;;;;3.10;2.90;;;;;;;19.36;85.29;100310.60;106246;1255;96616;-87
2023/07/21 06:52:09;;;;;;;3.00;2.80;;;;;;;19.41;84.58;100312.40;106041;1262;97122;-86
2023/07/21 06:54:55;;;;;;;2.80;2.60;;;;;;;19.48;84.33;100313.53;106564;1255;100088;-86
2023/07/21 06:57:41;;;;;;;5.50;3.00;;;;;;;19.57;84.19;100309.25;106279;1256;99924;-86
2023/07/21 07:00:27;;;;;;;4.50;2.30;;;;;;;19.65;83.84;100308.92;106176;1261;98989;-88
2023/07/21 07:03:12;;;;;;;5.50;2.50;;;;;;;19.73;83.67;100305.10;106813;1255;96574;-88
2023/07/21 07:05:59;;;;;;;4.20;2.30;;;;;;;19.83;83.88;100303.10;106219;1255;96689;-85
2023/07/21 07:08:44;;;;;;;6.00;2.90;;;;;;;19.94;83.53;100302.64;106316;1255;101341;-86
2023/07/21 07:11:31;;;;;;;3.70;2.50;;;;;;;20.05;83.41;100302.41;106663;1260;99236;-87
2023/07/21 07:14:16;;;;;;;2.70;2.20;;;;;;;20.15;82.12;100301.60;106560;1261;98363;-85
2023/07/21 07:17:02;;;;;;;5.10;2.80;;;;;;;20.23;81.14;100302.26;106317;1261;96627;-87
2023/07/21 07:19:48;;;;;;;3.20;2.00;;;;;;;20.28;79.98;100304.81;106097;1255;97033;-82
2023/07/21 07:22:34;;;;;;;2.80;2.00;;;;;;;20.34;79.41;100303.14;106377;1255;100184;-83
2023/07/21 07:25:23;;;;;;;1.90;1.50;;;;;;;20.41;78.39;100300.86;106415;1259;99150;-83
2023/07/21 07:28:09;;;;;;;4.00;1.70;;;;;;;20.46;77.43;100300.32;106500;1256;98338;-83
2023/07/21 07:30:54;;;;;;;3.40;1.90;;;;;;;20.50;76.49;100296.42;106438;1260;97402;-82
2023/07/21 07:33:40;;;;;;;6.10;1.80;;;;;;;20.56;76.60;100296.48;106467;1256;97134;-83
2023/07/21 07:36:26;;;;;;;2.20;1.40;;;;;;;20.62;75.94;100295.88;106368;1259;101407;-84
2023/07/21 07:39:15;;;;;;;6.40;1.50;;;;;;;20.68;75.11;100295.27;106481;1259;99137;-84
2023/07/21 07:42:01;;;;;;;2.60;1.40;;;;;;;20.76;74.39;100299.80;106206;1255;99017;-81
2023/07/21 07:44:47;;;;;;;2.20;1.60;;;;;;;20.86;73.31;100301.52;106175;1260;96786;-85
2023/07/21 07:47:34;;;;;;;1.90;1.30;;;;;;;20.94;72.61;100298.57;106349;1255;97133;-83
2023/07/21 07:50:21;;;;;;;3.20;1.40;;;;;;;21.02;71.52;100300.77;106361;1255;110098;-83
2023/07/21 07:53:08;;;;;;;2.30;1.30;;;;;;;21.10;71.50;100304.33;106477;1256;99140;-82
2023/07/21 07:55:53;;;;;;;3.30;1.10;;;;;;;21.07;69.28;100306.20;106242;1255;97802;-81
2023/07/21 07:58:39;;;;;;;4.00;1.00;;;;;;;21.00;67.36;100305.98;106217;1255;96647;-83
2023/07/21 08:01:24;;;;;;;1.90;1.10;;;;;;;20.97;66.69;100307.30;106328;1255;97102;-84
2023/07/21 08:04:10;;;;;;;2.80;0.80;;;;;;;20.95;66.41;100305.55;106073;1256;100122;-80
2023/07/21 08:06:56;;;;;;;1.80;1.10;;;;;;;21.01;65.85;100304.23;106582;1260;100047;-88
2023/07/21 08:09:41;;;;;;;1.20;1.10;;;;;;;20.99;64.90;100307.87;106815;1255;99854;-89
2023/07/21 08:12:28;;;;;;;3.00;1.20;;;;;;;21.01;65.36;100309.48;106533;1253;96524;-89
2023/07/21 08:15:15;;;;;;;1.70;1.10;;;;;;;21.06;65.54;100311.16;106692;1263;96648;-88
2023/07/21 08:18:01;;;;;;;1.00;0.90;;;;;;;21.09;63.95;100314.28;106295;1264;100233;-86
2023/07/21 08:20:51;;;;;;;2.50;1.50;;;;;;;21.11;62.61;100316.92;106089;1256;99321;-85
2023/07/21 08:23:36;;;;;;;3.50;3.20;;;;;;;21.21;61.87;100316.60;108361;1255;97694;-87
2023/07/21 08:26:22;;;;;;;2.70;1.30;;;;;;;21.32;61.04;100310.52;107412;1261;96516;-86
2023/07/21 08:29:09;;;;;;;7.10;1.70;;;;;;;21.39;60.58;100311.04;106112;1255;97042;-87
2023/07/21 08:31:54;;;;;;;2.30;1.00;;;;;;;21.42;60.08;100309.48;106506;1263;101401;-86
2023/07/21 08:34:40;;;;;;;2.80;1.00;;;;;;;21.55;60.53;100312.54;106069;1256;99195;-87
2023/07/21 08:37:26;;;;;;;2.10;0.70;;;;;;;21.68;59.08;100311.67;106227;1255;99128;-87
2023/07/21 08:40:12;;;;;;;1.90;1.10;;;;;;;21.67;58.44;100310.41;106344;1262;96612;-89
2023/07/21 08:43:03;;;;;;;1.00;0.80;;;;;;;21.68;58.89;100308.12;106409;1256;96799;-86
2023/07/21 08:45:49;;;;;;;3.50;1.30;;;;;;;21.71;58.75;100307.37;106117;1256;101372;-85
2023/07/21 08:48:35;;;;;;;3.80;1.20;;;;;;;21.76;57.19;100308.44;106335;1255;99154;-85
2023/07/21 08:51:21;;;;;;;1.30;0.90;;;;;;;21.83;57.17;100311.20;105920;1256;99191;-85
2023/07/21 08:54:07;;;;;;;1.00;0.70;;;;;;;21.84;56.54;100310.39;106154;1254;96548;-86
2023/07/21 08:56:52;;;;;;;3.00;0.90;;;;;;;21.79;56.17;100308.71;106109;1261;97124;-85
2023/07/21 08:59:39;;;;;;;1.90;1.20;;;;;;;21.72;55.79;100305.90;106295;1261;100070;-86
2023/07/21 09:02:45;;;;;;;1.00;0.60;;;;;;;21.72;56.14;100305.20;106338;1256;100360;-86
2023/07/21 09:05:31;;;;;;;1.70;0.80;;;;;;;21.78;56.11;100307.52;106102;1256;98340;-82
2023/07/21 09:08:24;;;;;;;3.20;1.20;;;;;;;21.83;55.08;100308.21;106340;1255;96503;-83
2023/07/21 09:11:09;;;;;;;2.30;0.90;;;;;;;21.87;54.64;100303.05;106040;1255;96631;-83
2023/07/21 09:13:56;;;;;;;3.10;0.80;;;;;;;21.97;55.29;100303.24;106331;1260;100084;-84
2023/07/21 09:16:51;;;;;;;1.80;1.20;;;;;;;22.01;55.03;100307.52;106287;1256;100405;-86
2023/07/21 09:19:43;;;;;;;2.60;1.00;;;;;;;22.03;54.37;100304.02;106050;1261;98915;-86
2023/07/21 09:22:29;;;;;;;4.70;1.10;;;;;;;22.13;54.75;100297.99;106324;1257;97769;-83
2023/07/21 09:25:20;;;;;;;2.20;1.20;;;;;;;22.28;54.44;100297.04;107018;1260;96855;-89
2023/07/21 09:28:06;;;;;;;4.20;1.10;;;;;;;22.42;54.57;100295.30;106943;1260;100214;-88
2023/07/21 09:30:52;;;;;;;1.20;0.80;;;;;;;22.55;53.39;100296.63;106791;1256;99207;-88
2023/07/21 09:33:41;;;;;;;4.90;1.00;;;;;;;22.63;52.17;100295.73;106698;1260;99008;-88
2023/07/21 09:36:27;;;;;;;1.50;0.90;;;;;;;22.67;51.90;100290.50;106733;1260;96607;-89
2023/07/21 09:39:17;;;;;;;4.80;1.00;;;;;;;22.62;51.36;100293.00;106437;1262;95723;-91
2023/07/21 09:42:04;;;;;;;1.00;0.80;;;;;;;22.59;50.18;100289.45;106736;1261;99978;-89
2023/07/21 09:44:52;;;;;;;1.40;1.10;;;;;;;22.51;50.25;100292.54;106636;1256;99177;-88
2023/07/21 09:47:39;;;;;;;3.00;1.30;;;;;;;22.51;50.38;100288.94;106796;1254;97804;-91
2023/07/21 09:50:25;;;;;;;1.10;0.80;;;;;;;22.58;50.19;100283.71;106884;1255;96641;-90
2023/07/21 09:53:16;;;;;;;4.70;0.80;;;;;;;22.58;49.93;100277.92;107108;1260;97069;-90
2023/07/21 09:56:04;;;;;;;2.80;1.10;;;;;;;22.65;50.58;100278.75;107045;1255;100677;-89
2023/07/21 09:58:55;;;;;;;1.10;1.00;;;;;;;22.72;50.44;100280.83;106995;1262;99262;-89
2023/07/21 10:01:42;;;;;;;2.10;1.20;;;;;;;22.72;49.94;100282.95;107117;1256;97834;-88
2023/07/21 10:04:30;;;;;;;1.90;0.90;;;;;;;22.74;49.83;100275.31;107132;1261;96607;-91
2023/07/21 10:07:16;;;;;;;2.20;0.90;;;;;;;22.81;49.74;100275.41;107128;1257;95844;-89
2023/07/21 10:10:05;;;;;;;1.80;1.00;;;;;;;22.80;49.59;100278.96;106906;1256;100945;-89
2023/07/21 10:12:53;;;;;;;3.30;0.90;;;;;;;22.80;48.78;100278.20;106984;1261;100835;-89
2023/07/21 10:15:46;;;;;;;2.40;1.00;;;;;;;22.79;49.46;100276.19;107058;1263;98900;-88
2023/07/21 10:18:32;;;;;;;1.40;0.90;;;;;;;22.79;49.97;100277.83;107166;1260;95818;-89
2023/07/21 10:21:18;;;;;;;1.00;0.80;;;;;;;22.76;49.52;100276.02;107170;1257;96807;-90
2023/07/21 10:24:07;;;;;;;3.70;1.10;;;;;;;22.79;49.12;100274.31;107087;1263;101449;-91
2023/07/21 10:26:56;;;;;;;3.20;1.20;;;;;;;22.73;48.88;100272.09;107042;1255;100410;-89
2023/07/21 10:29:42;;;;;;;3.70;1.10;;;;;;;22.62;48.70;100274.77;107161;1260;99722;-90
2023/07/21 10:32:28;;;;;;;1.70;1.10;;;;;;;22.60;48.59;100275.66;107119;1261;94677;-88
2023/07/21 10:35:36;;;;;;;2.50;1.10;;;;;;;22.67;49.63;100265.91;107259;1264;95993;-89
2023/07/21 10:38:24;;;;;;;1.30;1.00;;;;;;;22.84;49.74;100267.61;107211;1260;100074;-89
2023/07/21 10:41:09;;;;;;;1.80;1.30;;;;;;;23.00;49.38;100258.61;107158;1254;99043;-88
2023/07/21 10:43:55;;;;;;;2.00;1.00;;;;;;;23.10;48.04;100258.04;107176;1257;97833;-89
2023/07/21 10:46:44;;;;;;;3.10;1.70;;;;;;;23.18;48.06;100251.63;107263;1254;96623;-88
2023/07/21 10:49:30;;;;;;;1.00;0.90;;;;;;;23.26;47.90;100247.78;107114;1261;95832;-88
2023/07/21 10:52:16;;;;;;;4.60;1.70;;;;;;;23.37;48.07;100246.56;106915;1255;101314;-90
2023/07/21 10:55:02;;;;;;;2.80;0.80;;;;;;;23.48;47.82;100247.08;107223;1255;99407;-90
2023/07/21 10:57:48;;;;;;;3.10;1.20;;;;;;;23.57;47.51;100245.13;106932;1254;97860;-89
2023/07/21 11:00:51;;;;;;;3.40;0.70;;;;;;;23.58;46.54;100246.64;107008;1263;96619;-90
2023/07/21 11:03:41;;;;;;;2.20;0.80;;;;;;;23.49;46.15;100244.84;107232;1254;96624;-90
2023/07/21 11:06:27;;;;;;;1.70;1.00;;;;;;;23.40;45.46;100247.77;107208;1257;99982;-89
2023/07/21 11:09:14;;;;;;;1.80;1.00;;;;;;;23.40;46.24;100240.60;107354;1260;99075;-90
2023/07/21 11:11:59;;;;;;;0.80;0.80;;;;;;;23.54;46.36;100240.70;107122;1257;97824;-90
2023/07/21 11:14:46;;;;;;;1.00;0.90;;;;;;;23.67;46.09;100241.68;107098;1254;96619;-89
2023/07/21 11:17:32;;;;;;;1.50;1.10;;;;;;;23.67;45.20;100245.08;107114;1260;96634;-90
2023/07/21 11:20:18;;;;;;;1.20;0.70;;;;;;;23.60;44.60;100244.13;106546;1260;100102;-82
2023/07/21 11:23:03;;;;;;;1.40;0.80;;;;;;;23.55;45.02;100241.18;106517;1257;100866;-85
2023/07/21 11:26:10;;;;;;;4.00;1.20;;;;;;;23.61;45.83;100237.77;106370;1257;99599;-87
2023/07/21 11:28:59;;;;;;;1.80;0.90;;;;;;;23.74;45.68;100228.91;106383;1263;96630;-87
2023/07/21 11:31:44;;;;;;;1.70;0.90;;;;;;;23.84;44.87;100225.50;106173;1262;96595;-87
2023/07/21 11:34:31;;;;;;;2.20;0.70;;;;;;;23.93;45.14;100230.42;106264;1260;100068;-86
2023/07/21 11:37:17;;;;;;;1.70;0.80;;;;;;;24.07;44.90;100231.63;106332;1257;99207;-87
2023/07/21 11:40:15;;;;;;;1.80;0.80;;;;;;;24.20;44.05;100227.42;106483;1260;97816;-86
2023/07/21 11:43:07;;;;;;;1.60;0.90;;;;;;;24.32;43.96;100221.70;106328;1257;96535;-87
2023/07/21 11:45:54;;;;;;;1.60;0.80;;;;;;;24.48;43.47;100223.09;106417;1257;97061;-87
2023/07/21 11:48:39;;;;;;;1.00;0.90;;;;;;;24.53;42.32;100229.84;106566;1259;100078;-87
2023/07/21 11:51:41;;;;;;;1.80;0.80;;;;;;;24.55;42.11;100224.84;106309;1254;99855;-86
2023/07/21 11:54:29;;;;;;;1.00;0.90;;;;;;;24.44;41.34;100228.23;106028;1262;99083;-86
2023/07/21 11:57:14;;;;;;;2.10;1.20;;;;;;;24.38;41.81;100228.50;106182;1257;96629;-86
2023/07/21 12:00:04;;;;;;;2.50;1.00;;;;;;;24.42;42.41;100228.23;106037;1261;96734;-85
2023/07/21 12:02:58;;;;;;;2.70;0.70;;;;;;;24.46;42.18;100220.48;106244;1257;100091;-86
2023/07/21 12:05:45;;;;;;;1.90;0.80;;;;;;;24.54;41.67;100216.20;106126;1257;99759;-86
2023/07/21 12:08:30;;;;;;;5.00;0.90;;;;;;;24.61;41.56;100215.15;106012;1272;99075;-86
2023/07/21 12:11:16;;;;;;;2.90;0.70;;;;;;;24.69;41.60;100217.21;105827;1263;96570;-86
2023/07/21 12:14:03;;;;;;;1.50;0.80;;;;;;;24.68;40.57;100218.10;105756;1261;96538;-85
2023/07/21 12:16:49;;;;;;;0.90;0.80;;;;;;;24.73;40.48;100215.27;106046;1256;101394;-86
2023/07/21 12:19:35;;;;;;;3.60;0.90;;;;;;;24.85;40.51;100213.02;106283;1259;99181;-86
2023/07/21 12:22:24;;;;;;;2.30;0.70;;;;;;;24.96;40.27;100207.59;106237;1261;97677;-86
2023/07/21 12:25:11;;;;;;;0.90;0.70;;;;;;;25.07;39.72;100204.50;105950;1263;96792;-86
2023/07/21 12:28:01;;;;;;;;;;;;;;;25.18;39.49;100196.48;106227;1263;96615;-87
2023/07/21 12:30:47;;;;;;;5.60;0.80;;;;;;;25.28;39.96;100189.44;106180;1261;102867;-87
2023/07/21 12:33:35;;;;;;;0.90;0.70;;;;;;;25.41;40.25;100192.75;106023;1257;100471;-86
2023/07/21 12:36:20;;;;;;;1.00;0.60;;;;;;;25.40;39.12;100195.23;105863;1258;97651;-86
2023/07/21 12:39:10;;;;;;;0.80;0.80;;;;;;;25.26;38.15;100189.02;106123;1257;96698;-86
2023/07/21 12:41:59;;;;;;;1.80;0.90;;;;;;;25.17;38.34;100189.33;105979;1263;96621;-87
2023/07/21 12:44:44;;;;;;;2.40;1.10;;;;;;;25.12;38.50;100187.34;106131;1260;100921;-86
2023/07/21 12:47:30;;;;;;;2.70;0.90;;;;;;;25.23;39.29;100184.23;106352;1260;99207;-85
2023/07/21 12:50:16;;;;;;;1.30;0.70;;;;;;;25.40;39.64;100179.81;106028;1257;106490;-87
2023/07/21 12:53:02;;;;;;;0.90;0.70;;;;;;;25.51;39.40;100179.98;106107;1257;97090;-87